sensor_id;sensor_type;location;lat;lon;timestamp;pressure;altitude;pressure_sealevel;temperature
15626;BMP180;7912;51.376;6.126;2023-06-14T00:02:02;101131.00;;;22.90
15626;BMP180;7912;51.376;6.126;2023-06-14T00:04:30;101127.00;;;22.80
15626;BMP180;7912;51.376;6.126;2023-06-14T00:06:58;101133.00;;;22.80
15626;BMP180;7912;51.376;6.126;2023-06-14T00:09:25;101129.00;;;22.80
15626;BMP180;7912;51.376;6.126;2023-06-14T00:11:52;101127.00;;;22.70
15626;BMP180;7912;51.376;6.126;2023-06-14T00:14:20;101130.00;;;22.70
15626;BMP180;7912;51.376;6.126;2023-06-14T00:16:47;101134.00;;;22.60
15626;BMP180;7912;51.376;6.126;2023-06-14T00:19:14;101131.00;;;22.60
15626;BMP180;7912;51.376;6.126;2023-06-14T00:21:43;101146.00;;;22.60
15626;BMP180;7912;51.376;6.126;2023-06-14T00:24:10;101147.00;;;22.50
15626;BMP180;7912;51.376;6.126;2023-06-14T00:26:38;101143.00;;;22.50
15626;BMP180;7912;51.376;6.126;2023-06-14T00:29:05;101144.00;;;22.50
15626;BMP180;7912;51.376;6.126;2023-06-14T00:31:32;101145.00;;;22.40
15626;BMP180;7912;51.376;6.126;2023-06-14T00:34:00;101142.00;;;22.40
15626;BMP180;7912;51.376;6.126;2023-06-14T00:36:28;101145.00;;;22.40
15626;BMP180;7912;51.376;6.126;2023-06-14T00:38:55;101144.00;;;22.30
15626;BMP180;7912;51.376;6.126;2023-06-14T00:41:22;101147.00;;;22.30
15626;BMP180;7912;51.376;6.126;2023-06-14T00:43:52;101149.00;;;22.30
15626;BMP180;7912;51.376;6.126;2023-06-14T00:46:20;101150.00;;;22.30
15626;BMP180;7912;51.376;6.126;2023-06-14T00:48:49;101148.00;;;22.20
15626;BMP180;7912;51.376;6.126;2023-06-14T00:51:16;101149.00;;;22.20
15626;BMP180;7912;51.376;6.126;2023-06-14T00:53:44;101139.00;;;22.20
15626;BMP180;7912;51.376;6.126;2023-06-14T00:56:14;101141.00;;;22.10
15626;BMP180;7912;51.376;6.126;2023-06-14T00:58:43;101138.00;;;22.10
15626;BMP180;7912;51.376;6.126;2023-06-14T01:01:10;101140.00;;;22.10
15626;BMP180;7912;51.376;6.126;2023-06-14T01:03:38;101139.00;;;22.00
15626;BMP180;7912;51.376;6.126;2023-06-14T01:06:30;101141.00;;;22.00
15626;BMP180;7912;51.376;6.126;2023-06-14T01:09:27;101143.00;;;21.90
15626;BMP180;7912;51.376;6.126;2023-06-14T01:15:23;101145.00;;;21.70
15626;BMP180;7912;51.376;6.126;2023-06-14T01:17:52;101149.00;;;21.70
15626;BMP180;7912;51.376;6.126;2023-06-14T01:20:22;101155.00;;;21.70
15626;BMP180;7912;51.376;6.126;2023-06-14T01:22:56;101144.00;;;21.60
15626;BMP180;7912;51.376;6.126;2023-06-14T01:25:24;101141.00;;;21.60
15626;BMP180;7912;51.376;6.126;2023-06-14T01:28:05;101141.00;;;21.60
15626;BMP180;7912;51.376;6.126;2023-06-14T01:30:40;101144.00;;;21.50
15626;BMP180;7912;51.376;6.126;2023-06-14T01:33:22;101143.00;;;21.40
15626;BMP180;7912;51.376;6.126;2023-06-14T01:35:52;101142.00;;;21.40
15626;BMP180;7912;51.376;6.126;2023-06-14T01:38:25;101147.00;;;21.40
15626;BMP180;7912;51.376;6.126;2023-06-14T01:40:56;101150.00;;;21.40
15626;BMP180;7912;51.376;6.126;2023-06-14T01:43:25;101144.00;;;21.30
15626;BMP180;7912;51.376;6.126;2023-06-14T01:49:18;101149.00;;;21.20
15626;BMP180;7912;51.376;6.126;2023-06-14T01:51:45;101152.00;;;21.20
15626;BMP180;7912;51.376;6.126;2023-06-14T01:54:12;101154.00;;;21.20
15626;BMP180;7912;51.376;6.126;2023-06-14T01:56:39;101152.00;;;21.10
15626;BMP180;7912;51.376;6.126;2023-06-14T01:59:07;101146.00;;;21.10
15626;BMP180;7912;51.376;6.126;2023-06-14T02:01:35;101150.00;;;21.10
15626;BMP180;7912;51.376;6.126;2023-06-14T02:04:03;101136.00;;;21.10
15626;BMP180;7912;51.376;6.126;2023-06-14T02:06:31;101142.00;;;21.00
15626;BMP180;7912;51.376;6.126;2023-06-14T02:08:58;101142.00;;;21.00
15626;BMP180;7912;51.376;6.126;2023-06-14T02:11:25;101146.00;;;21.00
15626;BMP180;7912;51.376;6.126;2023-06-14T02:13:54;101140.00;;;21.00
15626;BMP180;7912;51.376;6.126;2023-06-14T02:16:22;101146.00;;;20.90
15626;BMP180;7912;51.376;6.126;2023-06-14T02:18:49;101145.00;;;20.90
15626;BMP180;7912;51.376;6.126;2023-06-14T02:21:19;101143.00;;;20.90
15626;BMP180;7912;51.376;6.126;2023-06-14T02:23:46;101152.00;;;20.80
15626;BMP180;7912;51.376;6.126;2023-06-14T02:26:14;101153.00;;;20.80
15626;BMP180;7912;51.376;6.126;2023-06-14T02:28:41;101150.00;;;20.80
15626;BMP180;7912;51.376;6.126;2023-06-14T02:31:08;101153.00;;;20.70
15626;BMP180;7912;51.376;6.126;2023-06-14T02:33:35;101162.00;;;20.70
15626;BMP180;7912;51.376;6.126;2023-06-14T02:36:03;101160.00;;;20.70
15626;BMP180;7912;51.376;6.126;2023-06-14T02:38:30;101150.00;;;20.70
15626;BMP180;7912;51.376;6.126;2023-06-14T02:40:58;101160.00;;;20.60
15626;BMP180;7912;51.376;6.126;2023-06-14T02:43:26;101151.00;;;20.60
15626;BMP180;7912;51.376;6.126;2023-06-14T02:45:53;101151.00;;;20.60
15626;BMP180;7912;51.376;6.126;2023-06-14T02:48:20;101158.00;;;20.50
15626;BMP180;7912;51.376;6.126;2023-06-14T02:50:48;101164.00;;;20.50
15626;BMP180;7912;51.376;6.126;2023-06-14T02:53:15;101167.00;;;20.50
15626;BMP180;7912;51.376;6.126;2023-06-14T02:55:43;101167.00;;;20.50
15626;BMP180;7912;51.376;6.126;2023-06-14T02:58:11;101171.00;;;20.40
15626;BMP180;7912;51.376;6.126;2023-06-14T03:00:38;101171.00;;;20.40
15626;BMP180;7912;51.376;6.126;2023-06-14T03:03:08;101172.00;;;20.30
15626;BMP180;7912;51.376;6.126;2023-06-14T03:05:46;101170.00;;;20.30
15626;BMP180;7912;51.376;6.126;2023-06-14T03:08:15;101177.00;;;20.30
15626;BMP180;7912;51.376;6.126;2023-06-14T03:10:47;101163.00;;;20.30
15626;BMP180;7912;51.376;6.126;2023-06-14T03:13:15;101180.00;;;20.20
15626;BMP180;7912;51.376;6.126;2023-06-14T03:15:43;101180.00;;;20.20
15626;BMP180;7912;51.376;6.126;2023-06-14T03:18:12;101178.00;;;20.20
15626;BMP180;7912;51.376;6.126;2023-06-14T03:20:39;101179.00;;;20.20
15626;BMP180;7912;51.376;6.126;2023-06-14T03:23:08;101184.00;;;20.20
15626;BMP180;7912;51.376;6.126;2023-06-14T03:25:35;101190.00;;;20.10
15626;BMP180;7912;51.376;6.126;2023-06-14T03:28:05;101190.00;;;20.10
15626;BMP180;7912;51.376;6.126;2023-06-14T03:30:32;101190.00;;;20.10
15626;BMP180;7912;51.376;6.126;2023-06-14T03:33:00;101190.00;;;20.10
15626;BMP180;7912;51.376;6.126;2023-06-14T03:35:31;101198.00;;;20.10
15626;BMP180;7912;51.376;6.126;2023-06-14T03:37:58;101193.00;;;20.10
15626;BMP180;7912;51.376;6.126;2023-06-14T03:40:26;101198.00;;;20.10
15626;BMP180;7912;51.376;6.126;2023-06-14T03:42:54;101202.00;;;20.00
15626;BMP180;7912;51.376;6.126;2023-06-14T03:45:22;101210.00;;;20.00
15626;BMP180;7912;51.376;6.126;2023-06-14T03:47:49;101210.00;;;20.00
15626;BMP180;7912;51.376;6.126;2023-06-14T03:50:18;101209.00;;;20.00
15626;BMP180;7912;51.376;6.126;2023-06-14T03:52:48;101210.00;;;20.00
15626;BMP180;7912;51.376;6.126;2023-06-14T03:55:16;101213.00;;;20.00
15626;BMP180;7912;51.376;6.126;2023-06-14T03:57:46;101210.00;;;20.00
15626;BMP180;7912;51.376;6.126;2023-06-14T04:00:14;101208.00;;;20.00
15626;BMP180;7912;51.376;6.126;2023-06-14T04:02:42;101217.00;;;20.10
15626;BMP180;7912;51.376;6.126;2023-06-14T04:05:11;101211.00;;;20.10
15626;BMP180;7912;51.376;6.126;2023-06-14T04:07:39;101212.00;;;20.00
15626;BMP180;7912;51.376;6.126;2023-06-14T04:10:12;101210.00;;;20.00
15626;BMP180;7912;51.376;6.126;2023-06-14T04:12:40;101218.00;;;20.10
15626;BMP180;7912;51.376;6.126;2023-06-14T04:15:10;101221.00;;;20.10
15626;BMP180;7912;51.376;6.126;2023-06-14T04:22:26;101225.00;;;20.10
15626;BMP180;7912;51.376;6.126;2023-06-14T04:24:55;101231.00;;;20.10
15626;BMP180;7912;51.376;6.126;2023-06-14T04:27:31;101234.00;;;20.20
15626;BMP180;7912;51.376;6.126;2023-06-14T04:30:03;101225.00;;;20.20
15626;BMP180;7912;51.376;6.126;2023-06-14T04:32:31;101216.00;;;20.20
15626;BMP180;7912;51.376;6.126;2023-06-14T04:35:00;101229.00;;;20.30
15626;BMP180;7912;51.376;6.126;2023-06-14T04:37:32;101230.00;;;20.30
15626;BMP180;7912;51.376;6.126;2023-06-14T04:40:00;101235.00;;;20.40
15626;BMP180;7912;51.376;6.126;2023-06-14T04:42:27;101231.00;;;20.40
15626;BMP180;7912;51.376;6.126;2023-06-14T04:44:58;101222.00;;;20.40
15626;BMP180;7912;51.376;6.126;2023-06-14T04:50:49;101230.00;;;20.50
15626;BMP180;7912;51.376;6.126;2023-06-14T04:53:21;101235.00;;;20.60
15626;BMP180;7912;51.376;6.126;2023-06-14T04:55:50;101246.00;;;20.60
15626;BMP180;7912;51.376;6.126;2023-06-14T04:58:17;101245.00;;;20.70
15626;BMP180;7912;51.376;6.126;2023-06-14T05:00:44;101237.00;;;20.70
15626;BMP180;7912;51.376;6.126;2023-06-14T05:03:11;101253.00;;;20.80
15626;BMP180;7912;51.376;6.126;2023-06-14T05:05:41;101242.00;;;20.90
15626;BMP180;7912;51.376;6.126;2023-06-14T05:08:08;101252.00;;;20.90
15626;BMP180;7912;51.376;6.126;2023-06-14T05:10:36;101248.00;;;20.90
15626;BMP180;7912;51.376;6.126;2023-06-14T05:13:04;101244.00;;;21.00
15626;BMP180;7912;51.376;6.126;2023-06-14T05:15:31;101247.00;;;21.00
15626;BMP180;7912;51.376;6.126;2023-06-14T05:17:59;101258.00;;;21.00
15626;BMP180;7912;51.376;6.126;2023-06-14T05:20:26;101260.00;;;21.10
15626;BMP180;7912;51.376;6.126;2023-06-14T05:22:54;101250.00;;;21.10
15626;BMP180;7912;51.376;6.126;2023-06-14T05:25:21;101260.00;;;21.10
15626;BMP180;7912;51.376;6.126;2023-06-14T05:27:48;101262.00;;;21.20
15626;BMP180;7912;51.376;6.126;2023-06-14T05:30:16;101267.00;;;21.20
15626;BMP180;7912;51.376;6.126;2023-06-14T05:32:44;101267.00;;;21.30
15626;BMP180;7912;51.376;6.126;2023-06-14T05:35:11;101256.00;;;21.30
15626;BMP180;7912;51.376;6.126;2023-06-14T05:37:39;101259.00;;;21.40
15626;BMP180;7912;51.376;6.126;2023-06-14T05:40:08;101267.00;;;21.40
15626;BMP180;7912;51.376;6.126;2023-06-14T05:42:36;101270.00;;;21.50
15626;BMP180;7912;51.376;6.126;2023-06-14T05:45:03;101261.00;;;21.60
15626;BMP180;7912;51.376;6.126;2023-06-14T05:47:31;101275.00;;;21.70
15626;BMP180;7912;51.376;6.126;2023-06-14T05:49:58;101275.00;;;21.70
15626;BMP180;7912;51.376;6.126;2023-06-14T05:52:26;101264.00;;;21.80
15626;BMP180;7912;51.376;6.126;2023-06-14T05:54:53;101267.00;;;21.90
15626;BMP180;7912;51.376;6.126;2023-06-14T05:57:21;101274.00;;;22.00
15626;BMP180;7912;51.376;6.126;2023-06-14T05:59:48;101278.00;;;22.00
15626;BMP180;7912;51.376;6.126;2023-06-14T06:02:15;101282.00;;;22.00
15626;BMP180;7912;51.376;6.126;2023-06-14T06:04:43;101284.00;;;22.10
15626;BMP180;7912;51.376;6.126;2023-06-14T06:07:10;101277.00;;;22.20
15626;BMP180;7912;51.376;6.126;2023-06-14T06:09:37;101286.00;;;22.20
15626;BMP180;7912;51.376;6.126;2023-06-14T06:12:07;101282.00;;;22.40
15626;BMP180;7912;51.376;6.126;2023-06-14T06:14:34;101288.00;;;22.40
15626;BMP180;7912;51.376;6.126;2023-06-14T06:17:01;101287.00;;;22.60
15626;BMP180;7912;51.376;6.126;2023-06-14T06:19:29;101284.00;;;22.90
15626;BMP180;7912;51.376;6.126;2023-06-14T06:21:56;101286.00;;;23.30
15626;BMP180;7912;51.376;6.126;2023-06-14T06:24:24;101301.00;;;23.80
15626;BMP180;7912;51.376;6.126;2023-06-14T06:27:07;101284.00;;;24.40
15626;BMP180;7912;51.376;6.126;2023-06-14T06:29:35;101290.00;;;24.90
15626;BMP180;7912;51.376;6.126;2023-06-14T06:32:03;101279.00;;;25.40
15626;BMP180;7912;51.376;6.126;2023-06-14T06:34:33;101287.00;;;25.90
15626;BMP180;7912;51.376;6.126;2023-06-14T06:41:00;101290.00;;;26.60
15626;BMP180;7912;51.376;6.126;2023-06-14T06:43:28;101297.00;;;26.90
15626;BMP180;7912;51.376;6.126;2023-06-14T06:45:55;101307.00;;;27.20
15626;BMP180;7912;51.376;6.126;2023-06-14T06:48:24;101296.00;;;27.40
15626;BMP180;7912;51.376;6.126;2023-06-14T06:50:51;101302.00;;;27.60
15626;BMP180;7912;51.376;6.126;2023-06-14T06:58:00;101312.00;;;28.50
15626;BMP180;7912;51.376;6.126;2023-06-14T07:00:28;101308.00;;;28.70
15626;BMP180;7912;51.376;6.126;2023-06-14T07:02:55;101313.00;;;28.80
15626;BMP180;7912;51.376;6.126;2023-06-14T07:05:24;101306.00;;;28.90
15626;BMP180;7912;51.376;6.126;2023-06-14T07:07:51;101310.00;;;28.90
15626;BMP180;7912;51.376;6.126;2023-06-14T07:10:21;101320.00;;;29.00
15626;BMP180;7912;51.376;6.126;2023-06-14T07:12:50;101324.00;;;29.20
15626;BMP180;7912;51.376;6.126;2023-06-14T07:15:17;101320.00;;;29.40
15626;BMP180;7912;51.376;6.126;2023-06-14T07:17:45;101329.00;;;29.50
15626;BMP180;7912;51.376;6.126;2023-06-14T07:20:13;101321.00;;;29.50
15626;BMP180;7912;51.376;6.126;2023-06-14T07:22:42;101323.00;;;29.50
15626;BMP180;7912;51.376;6.126;2023-06-14T07:25:11;101326.00;;;29.60
15626;BMP180;7912;51.376;6.126;2023-06-14T07:27:45;101325.00;;;29.80
15626;BMP180;7912;51.376;6.126;2023-06-14T07:30:31;101331.00;;;29.90
15626;BMP180;7912;51.376;6.126;2023-06-14T07:32:59;101333.00;;;30.00
15626;BMP180;7912;51.376;6.126;2023-06-14T07:35:26;101336.00;;;30.10
15626;BMP180;7912;51.376;6.126;2023-06-14T07:37:53;101335.00;;;30.20
15626;BMP180;7912;51.376;6.126;2023-06-14T07:40:21;101332.00;;;30.30
15626;BMP180;7912;51.376;6.126;2023-06-14T07:42:48;101340.00;;;30.30
15626;BMP180;7912;51.376;6.126;2023-06-14T07:45:18;101330.00;;;30.50
15626;BMP180;7912;51.376;6.126;2023-06-14T07:47:46;101329.00;;;30.70
15626;BMP180;7912;51.376;6.126;2023-06-14T07:50:14;101327.00;;;31.00
15626;BMP180;7912;51.376;6.126;2023-06-14T07:52:41;101335.00;;;31.20
15626;BMP180;7912;51.376;6.126;2023-06-14T07:55:08;101342.00;;;31.40
15626;BMP180;7912;51.376;6.126;2023-06-14T07:57:36;101334.00;;;31.50
15626;BMP180;7912;51.376;6.126;2023-06-14T08:00:04;101336.00;;;31.80
15626;BMP180;7912;51.376;6.126;2023-06-14T08:02:37;101337.00;;;32.00
15626;BMP180;7912;51.376;6.126;2023-06-14T08:05:05;101343.00;;;32.30
15626;BMP180;7912;51.376;6.126;2023-06-14T08:07:32;101349.00;;;32.50
15626;BMP180;7912;51.376;6.126;2023-06-14T08:09:59;101347.00;;;32.50
15626;BMP180;7912;51.376;6.126;2023-06-14T08:12:27;101340.00;;;32.60
15626;BMP180;7912;51.376;6.126;2023-06-14T08:14:55;101349.00;;;32.80
15626;BMP180;7912;51.376;6.126;2023-06-14T08:17:39;101356.00;;;33.00
15626;BMP180;7912;51.376;6.126;2023-06-14T08:20:08;101345.00;;;33.30
15626;BMP180;7912;51.376;6.126;2023-06-14T08:22:36;101347.00;;;33.30
15626;BMP180;7912;51.376;6.126;2023-06-14T08:25:04;101355.00;;;33.20
15626;BMP180;7912;51.376;6.126;2023-06-14T08:27:33;101349.00;;;33.00
15626;BMP180;7912;51.376;6.126;2023-06-14T08:30:00;101361.00;;;33.00
15626;BMP180;7912;51.376;6.126;2023-06-14T08:32:28;101350.00;;;33.00
15626;BMP180;7912;51.376;6.126;2023-06-14T08:34:58;101359.00;;;33.00
15626;BMP180;7912;51.376;6.126;2023-06-14T08:37:32;101356.00;;;33.00
15626;BMP180;7912;51.376;6.126;2023-06-14T08:40:00;101346.00;;;33.10
15626;BMP180;7912;51.376;6.126;2023-06-14T08:42:33;101348.00;;;33.30
15626;BMP180;7912;51.376;6.126;2023-06-14T08:45:01;101356.00;;;33.50
15626;BMP180;7912;51.376;6.126;2023-06-14T08:47:50;101349.00;;;33.70
15626;BMP180;7912;51.376;6.126;2023-06-14T08:50:26;101344.00;;;33.80
15626;BMP180;7912;51.376;6.126;2023-06-14T08:53:00;101349.00;;;33.90
15626;BMP180;7912;51.376;6.126;2023-06-14T08:55:31;101343.00;;;33.90
15626;BMP180;7912;51.376;6.126;2023-06-14T08:58:04;101342.00;;;34.00
15626;BMP180;7912;51.376;6.126;2023-06-14T09:00:32;101341.00;;;34.10
15626;BMP180;7912;51.376;6.126;2023-06-14T09:03:02;101355.00;;;34.30
15626;BMP180;7912;51.376;6.126;2023-06-14T09:05:30;101357.00;;;34.40
15626;BMP180;7912;51.376;6.126;2023-06-14T09:07:58;101343.00;;;34.40
15626;BMP180;7912;51.376;6.126;2023-06-14T09:10:33;101337.00;;;34.30
15626;BMP180;7912;51.376;6.126;2023-06-14T09:13:06;101351.00;;;34.10
15626;BMP180;7912;51.376;6.126;2023-06-14T09:15:35;101346.00;;;34.10
15626;BMP180;7912;51.376;6.126;2023-06-14T09:18:03;101344.00;;;34.30
15626;BMP180;7912;51.376;6.126;2023-06-14T09:20:32;101341.00;;;34.60
15626;BMP180;7912;51.376;6.126;2023-06-14T09:23:03;101358.00;;;34.70
15626;BMP180;7912;51.376;6.126;2023-06-14T09:25:41;101360.00;;;34.50
15626;BMP180;7912;51.376;6.126;2023-06-14T09:28:10;101349.00;;;34.10
15626;BMP180;7912;51.376;6.126;2023-06-14T09:30:38;101349.00;;;34.10
15626;BMP180;7912;51.376;6.126;2023-06-14T09:33:05;101356.00;;;34.20
15626;BMP180;7912;51.376;6.126;2023-06-14T09:35:33;101356.00;;;34.30
15626;BMP180;7912;51.376;6.126;2023-06-14T09:38:00;101359.00;;;34.30
15626;BMP180;7912;51.376;6.126;2023-06-14T09:40:28;101366.00;;;34.10
15626;BMP180;7912;51.376;6.126;2023-06-14T09:42:56;101357.00;;;33.80
15626;BMP180;7912;51.376;6.126;2023-06-14T09:45:26;101367.00;;;33.60
15626;BMP180;7912;51.376;6.126;2023-06-14T09:47:58;101366.00;;;33.60
15626;BMP180;7912;51.376;6.126;2023-06-14T09:50:28;101365.00;;;33.50
15626;BMP180;7912;51.376;6.126;2023-06-14T09:53:03;101357.00;;;33.50
15626;BMP180;7912;51.376;6.126;2023-06-14T09:55:34;101368.00;;;33.80
15626;BMP180;7912;51.376;6.126;2023-06-14T09:58:08;101369.00;;;33.90
15626;BMP180;7912;51.376;6.126;2023-06-14T10:00:37;101370.00;;;33.80
15626;BMP180;7912;51.376;6.126;2023-06-14T10:07:06;101376.00;;;33.90
15626;BMP180;7912;51.376;6.126;2023-06-14T10:09:35;101369.00;;;34.10
15626;BMP180;7912;51.376;6.126;2023-06-14T10:12:03;101376.00;;;34.00
15626;BMP180;7912;51.376;6.126;2023-06-14T10:14:31;101369.00;;;33.80
15626;BMP180;7912;51.376;6.126;2023-06-14T10:17:20;101362.00;;;33.70
15626;BMP180;7912;51.376;6.126;2023-06-14T10:20:03;101363.00;;;33.70
15626;BMP180;7912;51.376;6.126;2023-06-14T10:23:01;101362.00;;;33.70
15626;BMP180;7912;51.376;6.126;2023-06-14T10:25:29;101366.00;;;33.90
15626;BMP180;7912;51.376;6.126;2023-06-14T10:28:23;101364.00;;;34.00
15626;BMP180;7912;51.376;6.126;2023-06-14T10:31:11;101363.00;;;34.20
15626;BMP180;7912;51.376;6.126;2023-06-14T10:33:57;101363.00;;;34.10
15626;BMP180;7912;51.376;6.126;2023-06-14T10:36:31;101358.00;;;34.20
15626;BMP180;7912;51.376;6.126;2023-06-14T10:39:17;101350.00;;;34.10
15626;BMP180;7912;51.376;6.126;2023-06-14T10:41:54;101370.00;;;33.70
15626;BMP180;7912;51.376;6.126;2023-06-14T10:46:52;101358.00;;;33.40
15626;BMP180;7912;51.376;6.126;2023-06-14T10:49:45;101365.00;;;33.40
15626;BMP180;7912;51.376;6.126;2023-06-14T10:52:17;101366.00;;;33.40
15626;BMP180;7912;51.376;6.126;2023-06-14T10:57:32;101360.00;;;33.30
15626;BMP180;7912;51.376;6.126;2023-06-14T11:00:15;101370.00;;;33.10
15626;BMP180;7912;51.376;6.126;2023-06-14T11:08:26;101373.00;;;32.80
15626;BMP180;7912;51.376;6.126;2023-06-14T11:10:59;101375.00;;;32.90
15626;BMP180;7912;51.376;6.126;2023-06-14T11:13:27;101376.00;;;33.00
15626;BMP180;7912;51.376;6.126;2023-06-14T11:15:58;101375.00;;;33.10
15626;BMP180;7912;51.376;6.126;2023-06-14T11:18:26;101365.00;;;33.30
15626;BMP180;7912;51.376;6.126;2023-06-14T11:20:54;101371.00;;;33.70
15626;BMP180;7912;51.376;6.126;2023-06-14T11:23:22;101365.00;;;33.70
15626;BMP180;7912;51.376;6.126;2023-06-14T11:25:53;101359.00;;;33.80
15626;BMP180;7912;51.376;6.126;2023-06-14T11:28:20;101355.00;;;33.70
15626;BMP180;7912;51.376;6.126;2023-06-14T11:30:59;101364.00;;;33.50
15626;BMP180;7912;51.376;6.126;2023-06-14T11:33:27;101351.00;;;33.40
15626;BMP180;7912;51.376;6.126;2023-06-14T11:35:55;101347.00;;;33.30
15626;BMP180;7912;51.376;6.126;2023-06-14T11:38:22;101348.00;;;33.40
15626;BMP180;7912;51.376;6.126;2023-06-14T11:40:49;101343.00;;;33.40
15626;BMP180;7912;51.376;6.126;2023-06-14T11:43:17;101350.00;;;33.30
15626;BMP180;7912;51.376;6.126;2023-06-14T11:45:48;101359.00;;;33.30
15626;BMP180;7912;51.376;6.126;2023-06-14T11:48:42;101358.00;;;33.30
15626;BMP180;7912;51.376;6.126;2023-06-14T11:51:09;101366.00;;;33.30
15626;BMP180;7912;51.376;6.126;2023-06-14T11:53:38;101357.00;;;33.40
15626;BMP180;7912;51.376;6.126;2023-06-14T11:56:06;101356.00;;;33.50
15626;BMP180;7912;51.376;6.126;2023-06-14T11:58:34;101356.00;;;33.80
15626;BMP180;7912;51.376;6.126;2023-06-14T12:01:03;101361.00;;;34.00
15626;BMP180;7912;51.376;6.126;2023-06-14T12:03:31;101360.00;;;34.00
15626;BMP180;7912;51.376;6.126;2023-06-14T12:06:06;101356.00;;;33.90
15626;BMP180;7912;51.376;6.126;2023-06-14T12:08:38;101364.00;;;33.80
15626;BMP180;7912;51.376;6.126;2023-06-14T12:11:14;101358.00;;;33.70
15626;BMP180;7912;51.376;6.126;2023-06-14T12:13:43;101360.00;;;33.70
15626;BMP180;7912;51.376;6.126;2023-06-14T12:16:12;101360.00;;;33.90
15626;BMP180;7912;51.376;6.126;2023-06-14T12:18:41;101350.00;;;34.10
15626;BMP180;7912;51.376;6.126;2023-06-14T12:21:13;101363.00;;;34.20
15626;BMP180;7912;51.376;6.126;2023-06-14T12:23:49;101339.00;;;34.20
15626;BMP180;7912;51.376;6.126;2023-06-14T12:26:19;101345.00;;;34.40
15626;BMP180;7912;51.376;6.126;2023-06-14T12:28:47;101346.00;;;34.70
15626;BMP180;7912;51.376;6.126;2023-06-14T12:31:16;101347.00;;;34.70
15626;BMP180;7912;51.376;6.126;2023-06-14T12:33:44;101340.00;;;34.70
15626;BMP180;7912;51.376;6.126;2023-06-14T12:36:13;101350.00;;;34.60
15626;BMP180;7912;51.376;6.126;2023-06-14T12:39:20;101363.00;;;34.30
15626;BMP180;7912;51.376;6.126;2023-06-14T12:41:48;101350.00;;;34.20
15626;BMP180;7912;51.376;6.126;2023-06-14T12:44:16;101355.00;;;34.10
15626;BMP180;7912;51.376;6.126;2023-06-14T12:46:43;101337.00;;;34.10
15626;BMP180;7912;51.376;6.126;2023-06-14T12:49:12;101348.00;;;34.20
15626;BMP180;7912;51.376;6.126;2023-06-14T12:51:40;101339.00;;;34.30
15626;BMP180;7912;51.376;6.126;2023-06-14T12:54:07;101348.00;;;34.50
15626;BMP180;7912;51.376;6.126;2023-06-14T12:56:35;101346.00;;;34.80
15626;BMP180;7912;51.376;6.126;2023-06-14T12:59:02;101346.00;;;35.00
15626;BMP180;7912;51.376;6.126;2023-06-14T13:01:30;101339.00;;;35.00
15626;BMP180;7912;51.376;6.126;2023-06-14T13:03:57;101339.00;;;34.90
15626;BMP180;7912;51.376;6.126;2023-06-14T13:06:24;101333.00;;;34.80
15626;BMP180;7912;51.376;6.126;2023-06-14T13:08:52;101323.00;;;34.60
15626;BMP180;7912;51.376;6.126;2023-06-14T13:11:21;101334.00;;;34.60
15626;BMP180;7912;51.376;6.126;2023-06-14T13:13:49;101339.00;;;34.60
15626;BMP180;7912;51.376;6.126;2023-06-14T13:16:16;101344.00;;;34.60
15626;BMP180;7912;51.376;6.126;2023-06-14T13:18:44;101332.00;;;34.70
15626;BMP180;7912;51.376;6.126;2023-06-14T13:21:11;101340.00;;;34.70
15626;BMP180;7912;51.376;6.126;2023-06-14T13:23:39;101340.00;;;34.60
15626;BMP180;7912;51.376;6.126;2023-06-14T13:26:06;101344.00;;;34.50
15626;BMP180;7912;51.376;6.126;2023-06-14T13:28:34;101340.00;;;34.60
15626;BMP180;7912;51.376;6.126;2023-06-14T13:31:02;101335.00;;;34.70
15626;BMP180;7912;51.376;6.126;2023-06-14T13:33:29;101332.00;;;34.80
15626;BMP180;7912;51.376;6.126;2023-06-14T13:35:56;101333.00;;;35.10
15626;BMP180;7912;51.376;6.126;2023-06-14T13:38:27;101333.00;;;35.40
15626;BMP180;7912;51.376;6.126;2023-06-14T13:40:54;101327.00;;;35.60
15626;BMP180;7912;51.376;6.126;2023-06-14T13:43:22;101333.00;;;35.80
15626;BMP180;7912;51.376;6.126;2023-06-14T13:45:50;101336.00;;;35.70
15626;BMP180;7912;51.376;6.126;2023-06-14T13:48:17;101333.00;;;35.60
15626;BMP180;7912;51.376;6.126;2023-06-14T13:50:45;101346.00;;;35.60
15626;BMP180;7912;51.376;6.126;2023-06-14T13:53:13;101331.00;;;35.60
15626;BMP180;7912;51.376;6.126;2023-06-14T13:55:41;101325.00;;;35.80
15626;BMP180;7912;51.376;6.126;2023-06-14T13:58:08;101328.00;;;35.90
15626;BMP180;7912;51.376;6.126;2023-06-14T14:00:36;101322.00;;;36.10
15626;BMP180;7912;51.376;6.126;2023-06-14T14:03:07;101326.00;;;36.20
15626;BMP180;7912;51.376;6.126;2023-06-14T14:05:36;101327.00;;;36.40
15626;BMP180;7912;51.376;6.126;2023-06-14T14:08:04;101315.00;;;36.40
15626;BMP180;7912;51.376;6.126;2023-06-14T14:10:31;101321.00;;;36.30
15626;BMP180;7912;51.376;6.126;2023-06-14T14:12:58;101314.00;;;36.30
15626;BMP180;7912;51.376;6.126;2023-06-14T14:15:28;101322.00;;;36.40
15626;BMP180;7912;51.376;6.126;2023-06-14T14:17:56;101319.00;;;36.60
15626;BMP180;7912;51.376;6.126;2023-06-14T14:20:25;101327.00;;;36.70
15626;BMP180;7912;51.376;6.126;2023-06-14T14:22:53;101320.00;;;36.80
15626;BMP180;7912;51.376;6.126;2023-06-14T14:25:20;101324.00;;;36.90
15626;BMP180;7912;51.376;6.126;2023-06-14T14:27:47;101319.00;;;37.10
15626;BMP180;7912;51.376;6.126;2023-06-14T14:30:15;101328.00;;;37.10
15626;BMP180;7912;51.376;6.126;2023-06-14T14:32:44;101329.00;;;36.90
15626;BMP180;7912;51.376;6.126;2023-06-14T14:35:12;101328.00;;;36.70
15626;BMP180;7912;51.376;6.126;2023-06-14T14:37:40;101330.00;;;36.70
15626;BMP180;7912;51.376;6.126;2023-06-14T14:40:08;101326.00;;;36.50
15626;BMP180;7912;51.376;6.126;2023-06-14T14:42:37;101318.00;;;36.40
15626;BMP180;7912;51.376;6.126;2023-06-14T14:45:05;101324.00;;;36.30
15626;BMP180;7912;51.376;6.126;2023-06-14T14:47:33;101319.00;;;36.10
15626;BMP180;7912;51.376;6.126;2023-06-14T14:50:02;101317.00;;;36.00
15626;BMP180;7912;51.376;6.126;2023-06-14T14:52:29;101316.00;;;36.00
15626;BMP180;7912;51.376;6.126;2023-06-14T14:54:57;101311.00;;;36.10
15626;BMP180;7912;51.376;6.126;2023-06-14T14:57:24;101318.00;;;36.10
15626;BMP180;7912;51.376;6.126;2023-06-14T14:59:52;101326.00;;;36.20
15626;BMP180;7912;51.376;6.126;2023-06-14T15:02:20;101325.00;;;36.00